createdAt,value
2022-09-03T00:10:10.645Z,979.6
2022-09-03T00:24:37.746Z,979.6
2022-09-03T00:39:04.520Z,979.6
2022-09-03T00:53:31.993Z,979.5
2022-09-03T01:08:05.297Z,979.5
2022-09-03T01:22:34.809Z,979.5
2022-09-03T01:36:59.136Z,979.5
2022-09-03T01:51:26.829Z,979.5
2022-09-03T02:05:54.264Z,979.4
2022-09-03T02:20:21.876Z,979.4
2022-09-03T02:34:49.717Z,979.4
2022-09-03T02:49:16.116Z,979.3
2022-09-03T03:03:43.709Z,979.3
2022-09-03T03:18:11.606Z,979.3
2022-09-03T03:32:38.549Z,979.2
2022-09-03T03:47:05.742Z,979.2
2022-09-03T04:01:38.049Z,979.1
2022-09-03T04:16:05.936Z,978.9
2022-09-03T04:30:29.058Z,978.9
2022-09-03T04:44:55.743Z,979.1
2022-09-03T04:59:24.907Z,979.1
2022-09-03T05:13:52.484Z,979.1
2022-09-03T05:28:17.389Z,979.1
2022-09-03T05:42:45.783Z,979.1
2022-09-03T05:57:12.575Z,979.1
2022-09-03T06:11:46.849Z,979.2
2022-09-03T06:26:17.010Z,979.2
2022-09-03T06:40:38.791Z,979.2
2022-09-03T06:55:07.792Z,979.2
2022-09-03T07:09:36.022Z,979.2
2022-09-03T07:24:06.634Z,979.3
2022-09-03T07:38:45.045Z,979.3
2022-09-03T07:53:18.069Z,979.3
2022-09-03T08:07:48.789Z,979.3
2022-09-03T08:22:10.427Z,979.4
2022-09-03T08:36:38.708Z,979.2
2022-09-03T08:51:10.451Z,979.4
2022-09-03T09:05:37.648Z,979.3
2022-09-03T09:20:10.437Z,979.5
2022-09-03T09:34:26.597Z,979.4
2022-09-03T09:48:49.754Z,979.5
2022-09-03T10:03:16.936Z,979.5
2022-09-03T10:17:43.834Z,979.5
2022-09-03T10:32:17.782Z,979.5
2022-09-03T10:46:48.366Z,979.5
2022-09-03T11:01:09.013Z,979.6
2022-09-03T11:15:43.730Z,979.5
2022-09-03T11:30:11.925Z,979.5
2022-09-03T11:44:34.500Z,979.3
2022-09-03T11:59:03.277Z,979.1
2022-09-03T12:13:30.803Z,979.1
2022-09-03T12:28:00.615Z,979.1
2022-09-03T12:42:27.391Z,979
2022-09-03T12:56:54.891Z,978.9
2022-09-03T13:11:20.767Z,979
2022-09-03T13:25:49.421Z,978.9
2022-09-03T13:40:18.554Z,978.8
2022-09-03T13:54:50.267Z,978.9
2022-09-03T14:09:17.103Z,978.9
2022-09-03T14:23:41.119Z,979
2022-09-03T14:38:09.622Z,978.9
2022-09-03T14:52:37.970Z,978.9
2022-09-03T15:07:03.400Z,979.1
2022-09-03T15:21:29.526Z,979.1
2022-09-03T15:35:56.850Z,979
2022-09-03T15:50:27.362Z,979
2022-09-03T16:04:52.547Z,979.1
2022-09-03T16:19:25.417Z,979.3
2022-09-03T16:33:53.270Z,979.3
2022-09-03T16:48:21.627Z,979.3
2022-09-03T17:02:51.468Z,979.3
2022-09-03T17:17:14.955Z,979.4
2022-09-03T17:31:42.541Z,979.5
2022-09-03T17:46:07.138Z,979.8
2022-09-03T18:00:33.455Z,980.1
2022-09-03T18:15:00.721Z,980.2
2022-09-03T18:29:26.605Z,980.3
2022-09-03T18:43:53.283Z,980.3
2022-09-03T18:58:19.103Z,980.4
2022-09-03T19:12:59.923Z,980.6
2022-09-03T19:28:00.380Z,980.7
2022-09-03T19:42:12.894Z,980.9
2022-09-03T19:56:40.149Z,981
2022-09-03T20:10:59.334Z,981.1
2022-09-03T20:25:25.774Z,981.2
2022-09-03T20:39:51.994Z,981.2
2022-09-03T20:54:32.307Z,981.4
2022-09-03T21:08:57.418Z,981.4
2022-09-03T21:23:19.872Z,981.5
2022-09-03T21:37:46.338Z,981.5
2022-09-03T21:52:11.309Z,981.6
2022-09-03T22:06:37.261Z,981.5
2022-09-03T22:21:04.476Z,981.5
2022-09-03T22:35:29.785Z,981.6
2022-09-03T22:49:59.237Z,981.6
2022-09-03T23:04:25.086Z,981.7
2022-09-03T23:18:53.182Z,981.8
2022-09-03T23:33:19.970Z,981.8
2022-09-03T23:47:46.700Z,981.9
